METAR AND TAF INFORMATION
METAR FOR OBBI
ADDS - METARS form results

(2251 UTC 06 March 2021)
Data provider http://aviationweather.gov/metar/data/
 
METAR text: OBBI 062230Z 30010KT CAVOK 18/11 Q1016 NOSIG
Conditions at: OBBI (BAHRAIN INTL ARP, BH) observed 2230 UTC 06 March 2021
Temperature: 18.0°C (64°F)
Dewpoint: 11.0°C (52°F) [RH = 64%]
Pressure (altimeter): 30.00 inches Hg (1016.0 mb)
Winds: from the WNW (300 degrees) at 12 MPH (10 knots; 5.1 m/s)
Visibility: 6 or more miles (10+ km)
Ceiling: ceiling and visibility are OK
Clouds: unknown
Weather: no significant weather observed at this time

METAR text: OBBI 062200Z 31010KT CAVOK 18/10 Q1017 NOSIG
Conditions at: OBBI (BAHRAIN INTL ARP, BH) observed 2200 UTC 06 March 2021
Temperature: 18.0°C (64°F)
Dewpoint: 10.0°C (50°F) [RH = 59%]
Pressure (altimeter): 30.03 inches Hg (1017.0 mb)
Winds: from the NW (310 degrees) at 12 MPH (10 knots; 5.1 m/s)
Visibility: 6 or more miles (10+ km)
Ceiling: ceiling and visibility are OK
Clouds: unknown
Weather: no significant weather observed at this time

Forecast for: OBBI (BAHRAIN INTL ARP, BH)
Text: TAF OBBI 061700Z 0618/0800 32017KT CAVOK
Forecast period: 1800 UTC 06 March 2021 to 0000 UTC 08 March 2021
Forecast type: FROM: standard forecast or significant change
Winds: from the NW (320 degrees) at 20 MPH (17 knots; 8.7 m/s)
Visibility: 6 or more miles (10+ km)
Ceiling: unknown
Clouds: missing
Weather: NSW  (no significant weather)

 AIRPORT MAP

 RUNWAY INFORMATION
Runway 12L Runway length 12979 ft Runway width 197 ft
Runway elevation 6 ft Runway displaced threshold 1000 ft Runway heading 123
Runway 30R Runway length 12979 ft Runway width 197 ft
Runway elevation 6 ft Runway displaced threshold 1000 ft Runway heading 303
Runway 12R Runway length 8302 ft Runway width 148 ft
Runway elevation 7 ft Runway displaced threshold 1000 ft Runway heading 123
Runway 30L Runway length 8302 ft Runway width 148 ft
Runway elevation 6 ft Runway displaced threshold 395 ft Runway heading 303

 AIRPORT FREQUENCIES
Type APP Name APP Frequency 127.85 MHZ
Type ATIS Name ATIS Frequency 127.2 MHZ
Type GND Name GND Frequency 121.675 MHZ
Type OPS Name ATOC Frequency 32.175 MHZ
Type TWR Name TWR Frequency 118.5 MHZ

 AIRPORT NEAR NAVIGATION AIDS
Type VOR-DME Name Bahrain Frequency 115300 KHZ
Type NDB Name Bahrain Frequency 395 KHZ


   

  admin@vaerocargo.online

counter free counter free

Flag Counter
© 2020 VAeroCargo : All Rights Reserved

VAeroCargo is an online virtual simulation site for Flight Simulation purposes only, and does not represent any of the real world airlines, Inc. in any capacity.
No resemblance to real-world navigation


BIG THANKS to VAM and its suite of system on basis of which this entire VA system has been built on
Thanks to the original developer of Virtual Airline Manager(VAM) - Mr. Alejandro Garcia